sensor_id;sensor_type;location;lat;lon;timestamp;temperature;humidity
77277;DHT22;66330;52.166;9.978;2023-03-23T00:01:28;14.70;55.60
77277;DHT22;66330;52.166;9.978;2023-03-23T00:03:57;14.60;56.20
77277;DHT22;66330;52.166;9.978;2023-03-23T00:06:26;14.50;56.80
77277;DHT22;66330;52.166;9.978;2023-03-23T00:08:53;14.30;57.20
77277;DHT22;66330;52.166;9.978;2023-03-23T00:11:26;14.20;57.20
77277;DHT22;66330;52.166;9.978;2023-03-23T00:13:55;14.10;58.00
77277;DHT22;66330;52.166;9.978;2023-03-23T00:16:24;14.00;58.20
77277;DHT22;66330;52.166;9.978;2023-03-23T00:19:02;13.90;58.20
77277;DHT22;66330;52.166;9.978;2023-03-23T00:21:31;14.40;59.00
77277;DHT22;66330;52.166;9.978;2023-03-23T00:26:34;13.90;59.00
77277;DHT22;66330;52.166;9.978;2023-03-23T00:29:02;13.90;59.10
77277;DHT22;66330;52.166;9.978;2023-03-23T00:31:28;13.80;59.20
77277;DHT22;66330;52.166;9.978;2023-03-23T00:33:58;13.80;59.10
77277;DHT22;66330;52.166;9.978;2023-03-23T00:36:24;13.90;59.50
77277;DHT22;66330;52.166;9.978;2023-03-23T00:38:49;13.90;59.60
77277;DHT22;66330;52.166;9.978;2023-03-23T00:41:15;13.80;59.50
77277;DHT22;66330;52.166;9.978;2023-03-23T00:43:41;13.60;59.70
77277;DHT22;66330;52.166;9.978;2023-03-23T00:46:06;13.80;60.10
77277;DHT22;66330;52.166;9.978;2023-03-23T00:48:38;13.80;60.30
77277;DHT22;66330;52.166;9.978;2023-03-23T00:51:10;13.80;60.40
77277;DHT22;66330;52.166;9.978;2023-03-23T00:53:36;13.80;60.50
77277;DHT22;66330;52.166;9.978;2023-03-23T00:56:02;13.90;60.50
77277;DHT22;66330;52.166;9.978;2023-03-23T00:58:27;13.90;60.70
77277;DHT22;66330;52.166;9.978;2023-03-23T01:00:53;13.90;60.80
77277;DHT22;66330;52.166;9.978;2023-03-23T01:03:19;13.80;60.70
77277;DHT22;66330;52.166;9.978;2023-03-23T01:05:45;13.80;61.30
77277;DHT22;66330;52.166;9.978;2023-03-23T01:08:13;13.70;61.40
77277;DHT22;66330;52.166;9.978;2023-03-23T01:10:39;13.70;62.00
77277;DHT22;66330;52.166;9.978;2023-03-23T01:13:06;13.60;62.20
77277;DHT22;66330;52.166;9.978;2023-03-23T01:15:32;13.50;62.50
77277;DHT22;66330;52.166;9.978;2023-03-23T01:17:58;13.50;62.50
77277;DHT22;66330;52.166;9.978;2023-03-23T01:20:24;13.40;63.20
77277;DHT22;66330;52.166;9.978;2023-03-23T01:22:50;13.40;63.60
77277;DHT22;66330;52.166;9.978;2023-03-23T01:25:16;13.30;63.90
77277;DHT22;66330;52.166;9.978;2023-03-23T01:27:41;13.20;64.30
77277;DHT22;66330;52.166;9.978;2023-03-23T01:30:09;13.20;64.60
77277;DHT22;66330;52.166;9.978;2023-03-23T01:32:36;13.10;64.80
77277;DHT22;66330;52.166;9.978;2023-03-23T01:35:02;13.10;65.10
77277;DHT22;66330;52.166;9.978;2023-03-23T01:37:27;13.10;65.50
77277;DHT22;66330;52.166;9.978;2023-03-23T01:39:54;13.10;65.30
77277;DHT22;66330;52.166;9.978;2023-03-23T01:42:30;13.10;65.80
77277;DHT22;66330;52.166;9.978;2023-03-23T01:47:50;13.10;66.10
77277;DHT22;66330;52.166;9.978;2023-03-23T01:50:19;13.10;66.00
77277;DHT22;66330;52.166;9.978;2023-03-23T01:52:48;13.10;66.20
77277;DHT22;66330;52.166;9.978;2023-03-23T01:55:14;13.60;66.70
77277;DHT22;66330;52.166;9.978;2023-03-23T01:57:41;13.20;66.30
77277;DHT22;66330;52.166;9.978;2023-03-23T02:00:08;13.20;65.50
77277;DHT22;66330;52.166;9.978;2023-03-23T02:02:41;13.20;66.20
77277;DHT22;66330;52.166;9.978;2023-03-23T02:05:13;13.20;66.20
77277;DHT22;66330;52.166;9.978;2023-03-23T02:07:39;13.20;66.40
77277;DHT22;66330;52.166;9.978;2023-03-23T02:10:05;13.30;66.60
77277;DHT22;66330;52.166;9.978;2023-03-23T02:12:31;13.30;66.30
77277;DHT22;66330;52.166;9.978;2023-03-23T02:14:57;13.30;66.40
77277;DHT22;66330;52.166;9.978;2023-03-23T02:17:47;13.30;66.40
77277;DHT22;66330;52.166;9.978;2023-03-23T02:20:23;13.40;66.70
77277;DHT22;66330;52.166;9.978;2023-03-23T02:36:50;13.60;66.40
77277;DHT22;66330;52.166;9.978;2023-03-23T02:39:25;13.60;66.30
77277;DHT22;66330;52.166;9.978;2023-03-23T02:41:56;13.60;66.30
77277;DHT22;66330;52.166;9.978;2023-03-23T02:44:24;13.60;66.40
77277;DHT22;66330;52.166;9.978;2023-03-23T02:46:56;13.50;66.80
77277;DHT22;66330;52.166;9.978;2023-03-23T02:49:25;13.40;67.50
77277;DHT22;66330;52.166;9.978;2023-03-23T02:51:52;13.20;68.50
77277;DHT22;66330;52.166;9.978;2023-03-23T02:54:20;13.00;69.80
77277;DHT22;66330;52.166;9.978;2023-03-23T02:56:48;12.80;70.30
77277;DHT22;66330;52.166;9.978;2023-03-23T02:59:16;12.70;71.20
77277;DHT22;66330;52.166;9.978;2023-03-23T03:04:13;12.80;72.30
77277;DHT22;66330;52.166;9.978;2023-03-23T03:07:23;12.40;72.50
77277;DHT22;66330;52.166;9.978;2023-03-23T03:09:50;12.40;73.00
77277;DHT22;66330;52.166;9.978;2023-03-23T03:12:36;12.30;73.30
77277;DHT22;66330;52.166;9.978;2023-03-23T03:15:17;12.20;73.70
77277;DHT22;66330;52.166;9.978;2023-03-23T03:17:57;12.20;73.90
77277;DHT22;66330;52.166;9.978;2023-03-23T03:20:25;12.20;74.20
77277;DHT22;66330;52.166;9.978;2023-03-23T03:22:54;12.20;74.50
77277;DHT22;66330;52.166;9.978;2023-03-23T03:25:20;12.40;75.00
77277;DHT22;66330;52.166;9.978;2023-03-23T03:27:48;12.20;75.00
77277;DHT22;66330;52.166;9.978;2023-03-23T03:30:21;12.10;75.30
77277;DHT22;66330;52.166;9.978;2023-03-23T03:32:51;12.10;75.70
77277;DHT22;66330;52.166;9.978;2023-03-23T03:35:20;12.00;76.00
77277;DHT22;66330;52.166;9.978;2023-03-23T03:37:46;12.00;76.30
77277;DHT22;66330;52.166;9.978;2023-03-23T03:40:15;12.00;76.10
77277;DHT22;66330;52.166;9.978;2023-03-23T03:42:42;11.90;76.90
77277;DHT22;66330;52.166;9.978;2023-03-23T03:45:11;11.90;77.10
77277;DHT22;66330;52.166;9.978;2023-03-23T03:47:38;11.90;77.60
77277;DHT22;66330;52.166;9.978;2023-03-23T03:50:04;11.80;77.50
77277;DHT22;66330;52.166;9.978;2023-03-23T03:52:31;11.80;78.20
77277;DHT22;66330;52.166;9.978;2023-03-23T03:54:57;12.00;78.70
77277;DHT22;66330;52.166;9.978;2023-03-23T03:57:23;12.30;79.10
77277;DHT22;66330;52.166;9.978;2023-03-23T03:59:49;11.80;78.20
77277;DHT22;66330;52.166;9.978;2023-03-23T04:02:16;11.70;78.90
77277;DHT22;66330;52.166;9.978;2023-03-23T04:04:42;11.70;79.10
77277;DHT22;66330;52.166;9.978;2023-03-23T04:07:08;11.70;79.40
77277;DHT22;66330;52.166;9.978;2023-03-23T04:09:36;11.70;79.40
77277;DHT22;66330;52.166;9.978;2023-03-23T04:12:02;11.70;79.50
77277;DHT22;66330;52.166;9.978;2023-03-23T04:14:28;11.70;79.70
77277;DHT22;66330;52.166;9.978;2023-03-23T04:16:53;11.70;79.00
77277;DHT22;66330;52.166;9.978;2023-03-23T04:19:23;11.70;79.70
77277;DHT22;66330;52.166;9.978;2023-03-23T04:21:48;11.60;79.80
77277;DHT22;66330;52.166;9.978;2023-03-23T04:24:15;11.70;79.70
77277;DHT22;66330;52.166;9.978;2023-03-23T04:26:40;11.60;79.60
77277;DHT22;66330;52.166;9.978;2023-03-23T04:29:10;11.60;79.60
77277;DHT22;66330;52.166;9.978;2023-03-23T04:31:37;11.70;79.60
77277;DHT22;66330;52.166;9.978;2023-03-23T04:34:04;11.70;79.50
77277;DHT22;66330;52.166;9.978;2023-03-23T04:36:30;11.70;79.20
77277;DHT22;66330;52.166;9.978;2023-03-23T04:38:56;12.20;79.80
77277;DHT22;66330;52.166;9.978;2023-03-23T04:41:22;11.80;79.10
77277;DHT22;66330;52.166;9.978;2023-03-23T04:43:48;11.80;79.00
77277;DHT22;66330;52.166;9.978;2023-03-23T04:46:18;11.80;78.20
77277;DHT22;66330;52.166;9.978;2023-03-23T04:48:45;11.90;79.00
77277;DHT22;66330;52.166;9.978;2023-03-23T04:51:11;11.90;78.40
77277;DHT22;66330;52.166;9.978;2023-03-23T04:53:39;11.90;78.80
77277;DHT22;66330;52.166;9.978;2023-03-23T04:56:06;11.90;78.80
77277;DHT22;66330;52.166;9.978;2023-03-23T04:58:32;12.20;79.20
77277;DHT22;66330;52.166;9.978;2023-03-23T05:01:00;11.90;78.70
77277;DHT22;66330;52.166;9.978;2023-03-23T05:03:26;11.90;78.60
77277;DHT22;66330;52.166;9.978;2023-03-23T05:05:52;11.80;78.20
77277;DHT22;66330;52.166;9.978;2023-03-23T05:08:19;11.90;78.30
77277;DHT22;66330;52.166;9.978;2023-03-23T05:10:55;11.90;78.30
77277;DHT22;66330;52.166;9.978;2023-03-23T05:13:21;11.90;78.00
77277;DHT22;66330;52.166;9.978;2023-03-23T05:15:47;11.90;77.80
77277;DHT22;66330;52.166;9.978;2023-03-23T05:18:13;11.90;77.20
77277;DHT22;66330;52.166;9.978;2023-03-23T05:20:40;11.80;76.80
77277;DHT22;66330;52.166;9.978;2023-03-23T05:23:08;11.90;77.30
77277;DHT22;66330;52.166;9.978;2023-03-23T05:25:34;11.90;77.20
77277;DHT22;66330;52.166;9.978;2023-03-23T05:28:03;11.90;77.20
77277;DHT22;66330;52.166;9.978;2023-03-23T05:30:28;11.90;77.10
77277;DHT22;66330;52.166;9.978;2023-03-23T05:32:55;12.00;77.00
77277;DHT22;66330;52.166;9.978;2023-03-23T05:35:20;12.00;77.00
77277;DHT22;66330;52.166;9.978;2023-03-23T05:37:46;12.00;76.90
77277;DHT22;66330;52.166;9.978;2023-03-23T05:40:13;12.00;76.90
77277;DHT22;66330;52.166;9.978;2023-03-23T05:42:39;12.00;76.80
77277;DHT22;66330;52.166;9.978;2023-03-23T05:45:07;12.00;76.70
77277;DHT22;66330;52.166;9.978;2023-03-23T05:47:34;12.00;76.80
77277;DHT22;66330;52.166;9.978;2023-03-23T05:50:00;12.00;76.70
77277;DHT22;66330;52.166;9.978;2023-03-23T05:52:26;12.20;76.90
77277;DHT22;66330;52.166;9.978;2023-03-23T05:54:52;12.30;77.00
77277;DHT22;66330;52.166;9.978;2023-03-23T05:57:18;12.10;77.00
77277;DHT22;66330;52.166;9.978;2023-03-23T05:59:44;12.10;76.20
77277;DHT22;66330;52.166;9.978;2023-03-23T06:02:11;12.10;77.00
77277;DHT22;66330;52.166;9.978;2023-03-23T06:04:36;12.10;77.10
77277;DHT22;66330;52.166;9.978;2023-03-23T06:07:03;12.20;77.00
77277;DHT22;66330;52.166;9.978;2023-03-23T06:09:29;12.20;77.10
77277;DHT22;66330;52.166;9.978;2023-03-23T06:11:55;12.20;77.10
77277;DHT22;66330;52.166;9.978;2023-03-23T06:14:20;12.20;77.10
77277;DHT22;66330;52.166;9.978;2023-03-23T06:16:46;12.30;76.90
77277;DHT22;66330;52.166;9.978;2023-03-23T06:19:12;12.30;77.20
77277;DHT22;66330;52.166;9.978;2023-03-23T06:21:38;12.30;77.20
77277;DHT22;66330;52.166;9.978;2023-03-23T06:24:03;12.30;77.10
77277;DHT22;66330;52.166;9.978;2023-03-23T06:26:36;12.50;77.30
77277;DHT22;66330;52.166;9.978;2023-03-23T06:29:04;12.40;77.00
77277;DHT22;66330;52.166;9.978;2023-03-23T06:31:40;12.50;76.90
77277;DHT22;66330;52.166;9.978;2023-03-23T06:34:07;12.50;76.90
77277;DHT22;66330;52.166;9.978;2023-03-23T06:36:34;12.60;76.70
77277;DHT22;66330;52.166;9.978;2023-03-23T06:39:00;12.60;76.60
77277;DHT22;66330;52.166;9.978;2023-03-23T06:41:26;12.60;76.40
77277;DHT22;66330;52.166;9.978;2023-03-23T06:43:52;12.50;76.10
77277;DHT22;66330;52.166;9.978;2023-03-23T06:46:17;12.60;76.00
77277;DHT22;66330;52.166;9.978;2023-03-23T06:48:43;12.60;76.10
77277;DHT22;66330;52.166;9.978;2023-03-23T06:51:08;12.60;75.40
77277;DHT22;66330;52.166;9.978;2023-03-23T06:53:34;12.60;75.80
77277;DHT22;66330;52.166;9.978;2023-03-23T06:56:00;12.60;76.00
77277;DHT22;66330;52.166;9.978;2023-03-23T06:58:26;12.70;75.40
77277;DHT22;66330;52.166;9.978;2023-03-23T07:00:56;12.80;76.00
77277;DHT22;66330;52.166;9.978;2023-03-23T07:03:22;12.90;75.90
77277;DHT22;66330;52.166;9.978;2023-03-23T07:05:48;13.10;75.80
77277;DHT22;66330;52.166;9.978;2023-03-23T07:08:14;13.40;75.20
77277;DHT22;66330;52.166;9.978;2023-03-23T07:10:40;13.60;74.90
77277;DHT22;66330;52.166;9.978;2023-03-23T07:13:06;13.80;74.30
77277;DHT22;66330;52.166;9.978;2023-03-23T07:15:31;14.10;73.30
77277;DHT22;66330;52.166;9.978;2023-03-23T07:17:58;14.20;71.10
77277;DHT22;66330;52.166;9.978;2023-03-23T07:20:23;14.20;70.70
77277;DHT22;66330;52.166;9.978;2023-03-23T07:22:49;14.20;70.00
77277;DHT22;66330;52.166;9.978;2023-03-23T07:25:16;14.10;70.20
77277;DHT22;66330;52.166;9.978;2023-03-23T07:27:44;14.10;70.30
77277;DHT22;66330;52.166;9.978;2023-03-23T07:30:10;14.00;70.20
77277;DHT22;66330;52.166;9.978;2023-03-23T07:32:36;14.00;70.30
77277;DHT22;66330;52.166;9.978;2023-03-23T07:35:01;14.10;70.50
77277;DHT22;66330;52.166;9.978;2023-03-23T07:37:27;14.10;69.80
77277;DHT22;66330;52.166;9.978;2023-03-23T07:39:54;14.10;69.70
77277;DHT22;66330;52.166;9.978;2023-03-23T07:42:19;14.10;69.40
77277;DHT22;66330;52.166;9.978;2023-03-23T07:44:45;14.20;69.70
77277;DHT22;66330;52.166;9.978;2023-03-23T07:47:10;14.30;69.50
77277;DHT22;66330;52.166;9.978;2023-03-23T07:49:36;14.50;69.30
77277;DHT22;66330;52.166;9.978;2023-03-23T07:52:02;14.70;69.20
77277;DHT22;66330;52.166;9.978;2023-03-23T07:54:28;14.70;68.30
77277;DHT22;66330;52.166;9.978;2023-03-23T07:56:54;14.80;68.00
77277;DHT22;66330;52.166;9.978;2023-03-23T07:59:20;14.70;67.30
77277;DHT22;66330;52.166;9.978;2023-03-23T08:01:46;15.00;67.00
77277;DHT22;66330;52.166;9.978;2023-03-23T08:04:11;15.00;65.30
77277;DHT22;66330;52.166;9.978;2023-03-23T08:06:39;15.00;64.60
77277;DHT22;66330;52.166;9.978;2023-03-23T08:09:05;15.60;65.50
77277;DHT22;66330;52.166;9.978;2023-03-23T08:11:34;15.10;64.80
77277;DHT22;66330;52.166;9.978;2023-03-23T08:14:00;15.40;65.00
77277;DHT22;66330;52.166;9.978;2023-03-23T08:16:26;15.30;64.20
77277;DHT22;66330;52.166;9.978;2023-03-23T08:18:53;15.40;63.60
77277;DHT22;66330;52.166;9.978;2023-03-23T08:21:18;15.60;64.00
77277;DHT22;66330;52.166;9.978;2023-03-23T08:23:45;15.60;62.70
77277;DHT22;66330;52.166;9.978;2023-03-23T08:26:10;15.90;61.70
77277;DHT22;66330;52.166;9.978;2023-03-23T08:28:37;16.00;61.60
77277;DHT22;66330;52.166;9.978;2023-03-23T08:31:07;16.00;60.80
77277;DHT22;66330;52.166;9.978;2023-03-23T08:33:33;16.10;60.70
77277;DHT22;66330;52.166;9.978;2023-03-23T08:36:00;16.10;60.50
77277;DHT22;66330;52.166;9.978;2023-03-23T08:38:27;16.10;60.10
77277;DHT22;66330;52.166;9.978;2023-03-23T08:41:00;16.50;60.30
77277;DHT22;66330;52.166;9.978;2023-03-23T08:43:26;16.10;59.90
77277;DHT22;66330;52.166;9.978;2023-03-23T08:45:53;16.20;59.80
77277;DHT22;66330;52.166;9.978;2023-03-23T08:48:19;16.20;59.80
77277;DHT22;66330;52.166;9.978;2023-03-23T08:50:44;16.20;59.50
77277;DHT22;66330;52.166;9.978;2023-03-23T08:53:10;16.40;59.60
77277;DHT22;66330;52.166;9.978;2023-03-23T08:55:37;16.40;59.00
77277;DHT22;66330;52.166;9.978;2023-03-23T08:58:03;16.20;58.90
77277;DHT22;66330;52.166;9.978;2023-03-23T09:00:29;16.20;58.70
77277;DHT22;66330;52.166;9.978;2023-03-23T09:02:55;16.20;58.50
77277;DHT22;66330;52.166;9.978;2023-03-23T09:05:23;16.30;58.70
77277;DHT22;66330;52.166;9.978;2023-03-23T09:07:53;16.30;58.20
77277;DHT22;66330;52.166;9.978;2023-03-23T09:10:19;16.30;58.30
77277;DHT22;66330;52.166;9.978;2023-03-23T09:12:46;16.30;58.30
77277;DHT22;66330;52.166;9.978;2023-03-23T09:15:14;16.30;58.80
77277;DHT22;66330;52.166;9.978;2023-03-23T09:17:49;16.30;58.00
77277;DHT22;66330;52.166;9.978;2023-03-23T09:20:18;16.30;57.90
77277;DHT22;66330;52.166;9.978;2023-03-23T09:22:47;16.20;57.90
77277;DHT22;66330;52.166;9.978;2023-03-23T09:25:14;16.20;58.00
77277;DHT22;66330;52.166;9.978;2023-03-23T09:27:42;16.20;57.90
77277;DHT22;66330;52.166;9.978;2023-03-23T09:30:10;16.20;57.90
77277;DHT22;66330;52.166;9.978;2023-03-23T09:32:37;16.30;58.10
77277;DHT22;66330;52.166;9.978;2023-03-23T09:35:05;16.30;57.80
77277;DHT22;66330;52.166;9.978;2023-03-23T09:37:35;16.30;57.80
77277;DHT22;66330;52.166;9.978;2023-03-23T09:40:06;16.40;57.50
77277;DHT22;66330;52.166;9.978;2023-03-23T09:45:20;16.40;57.30
77277;DHT22;66330;52.166;9.978;2023-03-23T09:48:16;16.40;57.30
77277;DHT22;66330;52.166;9.978;2023-03-23T09:50:46;16.40;57.30
77277;DHT22;66330;52.166;9.978;2023-03-23T09:53:21;16.40;57.80
77277;DHT22;66330;52.166;9.978;2023-03-23T09:55:48;16.50;57.20
77277;DHT22;66330;52.166;9.978;2023-03-23T10:01:17;16.50;56.80
77277;DHT22;66330;52.166;9.978;2023-03-23T10:03:46;16.70;56.80
77277;DHT22;66330;52.166;9.978;2023-03-23T10:06:17;16.70;56.50
77277;DHT22;66330;52.166;9.978;2023-03-23T10:08:52;17.20;57.00
77277;DHT22;66330;52.166;9.978;2023-03-23T10:11:24;17.00;56.10
77277;DHT22;66330;52.166;9.978;2023-03-23T10:14:05;17.00;55.80
77277;DHT22;66330;52.166;9.978;2023-03-23T10:16:37;17.10;56.00
77277;DHT22;66330;52.166;9.978;2023-03-23T10:21:30;17.20;55.50
77277;DHT22;66330;52.166;9.978;2023-03-23T10:24:01;17.20;55.10
77277;DHT22;66330;52.166;9.978;2023-03-23T10:29:17;17.30;55.00
77277;DHT22;66330;52.166;9.978;2023-03-23T10:32:15;17.40;54.70
77277;DHT22;66330;52.166;9.978;2023-03-23T10:37:16;17.40;54.70
77277;DHT22;66330;52.166;9.978;2023-03-23T10:39:57;17.40;54.60
77277;DHT22;66330;52.166;9.978;2023-03-23T10:42:28;17.40;54.40
77277;DHT22;66330;52.166;9.978;2023-03-23T10:44:56;17.40;54.40
77277;DHT22;66330;52.166;9.978;2023-03-23T10:47:22;17.40;54.40
77277;DHT22;66330;52.166;9.978;2023-03-23T10:49:49;17.40;54.40
77277;DHT22;66330;52.166;9.978;2023-03-23T10:54:57;17.30;54.20
77277;DHT22;66330;52.166;9.978;2023-03-23T10:57:27;17.20;53.90
77277;DHT22;66330;52.166;9.978;2023-03-23T11:00:05;17.60;54.80
77277;DHT22;66330;52.166;9.978;2023-03-23T11:02:41;17.20;54.40
77277;DHT22;66330;52.166;9.978;2023-03-23T11:05:23;17.40;54.50
77277;DHT22;66330;52.166;9.978;2023-03-23T11:07:54;17.80;54.50
77277;DHT22;66330;52.166;9.978;2023-03-23T11:10:34;18.30;54.20
77277;DHT22;66330;52.166;9.978;2023-03-23T11:13:00;19.20;53.60
77277;DHT22;66330;52.166;9.978;2023-03-23T11:15:37;20.00;52.20
77277;DHT22;66330;52.166;9.978;2023-03-23T11:18:10;21.30;51.00
77277;DHT22;66330;52.166;9.978;2023-03-23T11:20:39;21.90;48.30
77277;DHT22;66330;52.166;9.978;2023-03-23T11:25:56;22.80;46.10
77277;DHT22;66330;52.166;9.978;2023-03-23T11:28:27;22.90;45.60
77277;DHT22;66330;52.166;9.978;2023-03-23T11:30:55;23.00;45.50
77277;DHT22;66330;52.166;9.978;2023-03-23T11:33:22;22.80;45.50
77277;DHT22;66330;52.166;9.978;2023-03-23T11:35:53;23.20;45.30
77277;DHT22;66330;52.166;9.978;2023-03-23T11:38:21;23.40;44.10
77277;DHT22;66330;52.166;9.978;2023-03-23T11:40:50;23.00;43.50
77277;DHT22;66330;52.166;9.978;2023-03-23T11:43:23;23.50;44.20
77277;DHT22;66330;52.166;9.978;2023-03-23T11:48:38;23.40;41.60
77277;DHT22;66330;52.166;9.978;2023-03-23T11:51:06;23.20;42.30
77277;DHT22;66330;52.166;9.978;2023-03-23T11:59:02;23.70;42.60
77277;DHT22;66330;52.166;9.978;2023-03-23T12:01:40;24.30;40.80
77277;DHT22;66330;52.166;9.978;2023-03-23T12:04:44;24.20;40.00
77277;DHT22;66330;52.166;9.978;2023-03-23T12:07:14;23.80;40.10
77277;DHT22;66330;52.166;9.978;2023-03-23T12:15:30;22.70;41.50
77277;DHT22;66330;52.166;9.978;2023-03-23T12:20:41;22.70;40.80
77277;DHT22;66330;52.166;9.978;2023-03-23T12:23:36;22.20;40.50
77277;DHT22;66330;52.166;9.978;2023-03-23T12:26:28;21.60;41.00
77277;DHT22;66330;52.166;9.978;2023-03-23T12:29:24;21.20;41.80
77277;DHT22;66330;52.166;9.978;2023-03-23T12:48:41;18.70;44.80
77277;DHT22;66330;52.166;9.978;2023-03-23T12:54:05;18.90;45.80
77277;DHT22;66330;52.166;9.978;2023-03-23T12:56:41;18.50;45.80
77277;DHT22;66330;52.166;9.978;2023-03-23T12:59:27;18.50;45.90
77277;DHT22;66330;52.166;9.978;2023-03-23T13:02:05;18.30;46.90
77277;DHT22;66330;52.166;9.978;2023-03-23T13:04:37;17.80;48.60
77277;DHT22;66330;52.166;9.978;2023-03-23T13:07:09;17.30;50.20
77277;DHT22;66330;52.166;9.978;2023-03-23T13:12:16;16.50;53.00
77277;DHT22;66330;52.166;9.978;2023-03-23T13:14:57;16.20;54.10
77277;DHT22;66330;52.166;9.978;2023-03-23T13:17:41;15.90;54.70
77277;DHT22;66330;52.166;9.978;2023-03-23T13:28:02;15.50;57.10
77277;DHT22;66330;52.166;9.978;2023-03-23T13:30:29;15.60;57.00
77277;DHT22;66330;52.166;9.978;2023-03-23T13:33:05;15.90;57.20
77277;DHT22;66330;52.166;9.978;2023-03-23T13:35:36;16.20;56.80
77277;DHT22;66330;52.166;9.978;2023-03-23T13:38:13;16.40;56.20
77277;DHT22;66330;52.166;9.978;2023-03-23T13:40:43;16.60;55.60
77277;DHT22;66330;52.166;9.978;2023-03-23T13:43:09;16.60;54.40
77277;DHT22;66330;52.166;9.978;2023-03-23T13:45:44;16.50;54.30
77277;DHT22;66330;52.166;9.978;2023-03-23T13:50:55;16.30;54.10
77277;DHT22;66330;52.166;9.978;2023-03-23T13:53:45;16.20;54.00
77277;DHT22;66330;52.166;9.978;2023-03-23T13:56:18;16.10;54.10
77277;DHT22;66330;52.166;9.978;2023-03-23T13:58:50;15.80;54.10
77277;DHT22;66330;52.166;9.978;2023-03-23T14:01:37;15.90;54.30
77277;DHT22;66330;52.166;9.978;2023-03-23T14:04:12;15.80;54.70
77277;DHT22;66330;52.166;9.978;2023-03-23T14:06:39;15.60;54.90
77277;DHT22;66330;52.166;9.978;2023-03-23T14:09:11;15.50;55.40
77277;DHT22;66330;52.166;9.978;2023-03-23T14:11:54;15.40;56.00
77277;DHT22;66330;52.166;9.978;2023-03-23T14:14:28;15.30;56.70
77277;DHT22;66330;52.166;9.978;2023-03-23T14:17:06;15.10;57.20
77277;DHT22;66330;52.166;9.978;2023-03-23T14:19:33;14.90;58.00
77277;DHT22;66330;52.166;9.978;2023-03-23T14:22:00;14.70;58.70
77277;DHT22;66330;52.166;9.978;2023-03-23T14:24:32;14.60;59.50
77277;DHT22;66330;52.166;9.978;2023-03-23T14:27:08;14.40;61.10
77277;DHT22;66330;52.166;9.978;2023-03-23T14:29:34;14.40;61.50
77277;DHT22;66330;52.166;9.978;2023-03-23T14:32:01;14.00;61.60
77277;DHT22;66330;52.166;9.978;2023-03-23T14:34:30;13.80;62.90
77277;DHT22;66330;52.166;9.978;2023-03-23T14:36:56;13.70;63.70
77277;DHT22;66330;52.166;9.978;2023-03-23T14:39:27;13.50;64.40
77277;DHT22;66330;52.166;9.978;2023-03-23T14:41:55;13.40;64.90
77277;DHT22;66330;52.166;9.978;2023-03-23T14:44:24;13.30;65.60
77277;DHT22;66330;52.166;9.978;2023-03-23T14:46:50;13.20;66.20
77277;DHT22;66330;52.166;9.978;2023-03-23T14:49:21;13.20;67.00
77277;DHT22;66330;52.166;9.978;2023-03-23T14:51:53;13.40;67.70
77277;DHT22;66330;52.166;9.978;2023-03-23T14:54:23;13.20;67.90
77277;DHT22;66330;52.166;9.978;2023-03-23T14:56:49;13.20;67.90
77277;DHT22;66330;52.166;9.978;2023-03-23T14:59:16;13.20;68.00
77277;DHT22;66330;52.166;9.978;2023-03-23T15:01:42;13.20;68.00
77277;DHT22;66330;52.166;9.978;2023-03-23T15:06:47;13.20;69.00
77277;DHT22;66330;52.166;9.978;2023-03-23T15:09:16;13.40;69.10
77277;DHT22;66330;52.166;9.978;2023-03-23T15:12:11;13.60;69.20
77277;DHT22;66330;52.166;9.978;2023-03-23T15:14:49;13.70;69.00
77277;DHT22;66330;52.166;9.978;2023-03-23T15:17:23;13.90;68.60
77277;DHT22;66330;52.166;9.978;2023-03-23T15:19:50;14.00;68.30
77277;DHT22;66330;52.166;9.978;2023-03-23T15:25:09;14.10;68.10
77277;DHT22;66330;52.166;9.978;2023-03-23T15:27:41;14.10;67.90
77277;DHT22;66330;52.166;9.978;2023-03-23T15:30:29;14.10;68.00
77277;DHT22;66330;52.166;9.978;2023-03-23T15:33:09;14.10;68.20
77277;DHT22;66330;52.166;9.978;2023-03-23T15:35:37;14.10;68.30
77277;DHT22;66330;52.166;9.978;2023-03-23T15:38:19;14.00;68.40
77277;DHT22;66330;52.166;9.978;2023-03-23T15:40:54;13.90;68.70
77277;DHT22;66330;52.166;9.978;2023-03-23T15:43:21;13.70;68.90
77277;DHT22;66330;52.166;9.978;2023-03-23T15:48:49;14.60;70.60
77277;DHT22;66330;52.166;9.978;2023-03-23T15:51:16;14.10;69.70
77277;DHT22;66330;52.166;9.978;2023-03-23T15:53:43;14.20;69.70
77277;DHT22;66330;52.166;9.978;2023-03-23T15:56:11;14.30;68.80
77277;DHT22;66330;52.166;9.978;2023-03-23T15:58:38;14.50;69.10
77277;DHT22;66330;52.166;9.978;2023-03-23T16:01:16;14.40;68.40
77277;DHT22;66330;52.166;9.978;2023-03-23T16:06:18;15.30;68.70
77277;DHT22;66330;52.166;9.978;2023-03-23T16:08:44;15.40;69.00
77277;DHT22;66330;52.166;9.978;2023-03-23T16:11:12;15.40;67.20
77277;DHT22;66330;52.166;9.978;2023-03-23T16:13:38;15.40;66.70
77277;DHT22;66330;52.166;9.978;2023-03-23T16:16:05;15.30;66.30
77277;DHT22;66330;52.166;9.978;2023-03-23T16:18:33;15.20;66.00
77277;DHT22;66330;52.166;9.978;2023-03-23T16:20:58;15.20;66.00
77277;DHT22;66330;52.166;9.978;2023-03-23T16:23:25;15.40;65.90
77277;DHT22;66330;52.166;9.978;2023-03-23T16:25:51;15.50;66.10
77277;DHT22;66330;52.166;9.978;2023-03-23T16:28:17;15.20;65.30
77277;DHT22;66330;52.166;9.978;2023-03-23T16:30:45;15.50;66.00
77277;DHT22;66330;52.166;9.978;2023-03-23T16:33:11;15.20;65.40
77277;DHT22;66330;52.166;9.978;2023-03-23T16:35:36;15.20;65.20
77277;DHT22;66330;52.166;9.978;2023-03-23T16:38:02;15.20;66.00
77277;DHT22;66330;52.166;9.978;2023-03-23T16:40:28;15.20;64.60
77277;DHT22;66330;52.166;9.978;2023-03-23T16:42:54;15.20;64.90
77277;DHT22;66330;52.166;9.978;2023-03-23T16:45:20;15.30;65.20
77277;DHT22;66330;52.166;9.978;2023-03-23T16:47:46;15.10;63.70
77277;DHT22;66330;52.166;9.978;2023-03-23T16:50:14;15.10;64.90
77277;DHT22;66330;52.166;9.978;2023-03-23T16:52:42;15.00;64.00
77277;DHT22;66330;52.166;9.978;2023-03-23T16:55:10;14.90;64.00
77277;DHT22;66330;52.166;9.978;2023-03-23T16:57:37;14.80;64.10
77277;DHT22;66330;52.166;9.978;2023-03-23T17:00:14;14.80;64.40
77277;DHT22;66330;52.166;9.978;2023-03-23T17:02:41;14.70;64.50
77277;DHT22;66330;52.166;9.978;2023-03-23T17:05:08;14.60;64.60
77277;DHT22;66330;52.166;9.978;2023-03-23T17:07:36;14.70;64.80
77277;DHT22;66330;52.166;9.978;2023-03-23T17:10:02;14.50;65.20
77277;DHT22;66330;52.166;9.978;2023-03-23T17:12:28;14.40;65.40
77277;DHT22;66330;52.166;9.978;2023-03-23T17:14:53;14.30;65.50
77277;DHT22;66330;52.166;9.978;2023-03-23T17:17:19;14.80;66.70
77277;DHT22;66330;52.166;9.978;2023-03-23T17:19:44;14.20;66.10
77277;DHT22;66330;52.166;9.978;2023-03-23T17:22:10;14.20;66.70
77277;DHT22;66330;52.166;9.978;2023-03-23T17:24:36;14.70;67.60